createdAt,value
2019-03-30T00:01:01.918Z,64.00
2019-03-30T00:03:31.844Z,63.60
2019-03-30T00:06:01.568Z,63.60
2019-03-30T00:08:31.351Z,63.40
2019-03-30T00:11:01.081Z,63.90
2019-03-30T00:13:30.818Z,63.50
2019-03-30T00:16:00.823Z,63.40
2019-03-30T00:18:30.584Z,63.70
2019-03-30T00:21:00.423Z,64.10
2019-03-30T00:23:30.371Z,64.80
2019-03-30T00:26:00.290Z,64.40
2019-03-30T00:28:30.231Z,64.70
2019-03-30T00:30:59.970Z,64.60
2019-03-30T00:33:29.714Z,65.10
2019-03-30T00:35:59.457Z,64.50
2019-03-30T00:38:29.156Z,64.30
2019-03-30T00:41:17.749Z,64.70
2019-03-30T00:43:47.777Z,64.90
2019-03-30T00:46:36.304Z,65.00
2019-03-30T00:49:06.063Z,65.20
2019-03-30T00:51:35.825Z,66.10
2019-03-30T00:54:05.872Z,65.60
2019-03-30T00:56:35.605Z,65.90
2019-03-30T00:59:05.324Z,65.80
2019-03-30T01:01:35.100Z,65.60
2019-03-30T01:04:05.480Z,65.20
2019-03-30T01:06:35.213Z,65.10
2019-03-30T01:09:07.556Z,65.60
2019-03-30T01:11:37.280Z,65.20
2019-03-30T01:14:07.176Z,65.40
2019-03-30T01:16:37.221Z,65.60
2019-03-30T01:19:07.298Z,65.40
2019-03-30T01:21:37.022Z,65.40
2019-03-30T01:24:07.145Z,66.10
2019-03-30T01:26:36.896Z,66.10
2019-03-30T01:29:06.860Z,66.00
2019-03-30T01:31:36.973Z,66.10
2019-03-30T01:34:06.980Z,65.70
2019-03-30T01:36:36.720Z,66.00
2019-03-30T01:39:09.789Z,66.30
2019-03-30T01:41:39.930Z,66.90
2019-03-30T01:44:09.633Z,66.80
2019-03-30T01:46:39.562Z,66.50
2019-03-30T01:49:09.281Z,66.20
2019-03-30T01:51:39.202Z,66.60
2019-03-30T01:54:09.164Z,66.90
2019-03-30T01:56:38.868Z,65.80
2019-03-30T01:59:08.605Z,65.90
2019-03-30T02:01:38.332Z,66.10
2019-03-30T02:04:08.084Z,66.10
2019-03-30T02:06:38.077Z,65.60
2019-03-30T02:09:08.020Z,65.90
2019-03-30T02:11:37.831Z,66.20
2019-03-30T02:14:07.564Z,66.70
2019-03-30T02:16:37.441Z,67.00
2019-03-30T02:19:07.168Z,66.90
2019-03-30T02:21:37.077Z,66.80
2019-03-30T02:24:06.911Z,66.40
2019-03-30T02:26:36.604Z,66.30
2019-03-30T02:29:06.335Z,67.60
2019-03-30T02:31:36.041Z,67.80
2019-03-30T02:34:05.835Z,67.60
2019-03-30T02:36:35.836Z,67.80
2019-03-30T02:39:06.814Z,67.80
2019-03-30T02:41:36.529Z,67.70
2019-03-30T02:44:06.505Z,67.50
2019-03-30T02:46:36.366Z,67.20
2019-03-30T02:49:06.419Z,67.50
2019-03-30T02:51:36.131Z,67.10
2019-03-30T02:54:06.070Z,66.80
2019-03-30T02:56:35.798Z,66.80
2019-03-30T02:59:05.661Z,66.80
2019-03-30T03:01:35.719Z,67.40
2019-03-30T03:04:05.738Z,67.30
2019-03-30T03:06:35.753Z,67.50
2019-03-30T03:09:08.088Z,67.50
2019-03-30T03:11:38.057Z,67.40
2019-03-30T03:14:07.836Z,67.00
2019-03-30T03:16:37.589Z,66.70
2019-03-30T03:19:07.584Z,67.70
2019-03-30T03:21:37.305Z,67.90
2019-03-30T03:24:07.025Z,67.80
2019-03-30T03:26:37.042Z,67.90
2019-03-30T03:29:06.750Z,67.70
2019-03-30T03:31:36.495Z,67.60
2019-03-30T03:34:06.211Z,67.90
2019-03-30T03:36:36.059Z,67.80
2019-03-30T03:39:06.939Z,68.20
2019-03-30T03:41:36.794Z,68.20
2019-03-30T03:44:06.697Z,68.60
2019-03-30T03:46:36.619Z,68.10
2019-03-30T03:49:06.402Z,68.60
2019-03-30T03:51:36.714Z,68.90
2019-03-30T03:54:06.401Z,68.40
2019-03-30T03:56:37.965Z,67.80
2019-03-30T03:59:08.160Z,67.30
2019-03-30T04:01:39.846Z,68.50
2019-03-30T04:04:11.326Z,68.30
2019-03-30T04:06:42.780Z,68.00
2019-03-30T04:09:15.393Z,67.80
2019-03-30T04:11:46.587Z,68.10
2019-03-30T04:14:19.413Z,69.00
2019-03-30T04:16:49.132Z,69.10
2019-03-30T04:19:19.266Z,69.50
2019-03-30T04:21:49.001Z,69.30
2019-03-30T04:24:18.914Z,69.30
2019-03-30T04:26:48.651Z,69.20
2019-03-30T04:29:18.563Z,68.90
2019-03-30T04:31:48.444Z,69.10
2019-03-30T04:34:18.293Z,68.60
2019-03-30T04:36:47.996Z,68.80
2019-03-30T04:39:17.713Z,69.00
2019-03-30T04:41:47.413Z,69.30
2019-03-30T04:44:17.234Z,69.10
2019-03-30T04:46:46.913Z,68.90
2019-03-30T04:49:16.649Z,69.40
2019-03-30T04:51:56.888Z,68.60
2019-03-30T04:54:17.863Z,68.70
2019-03-30T04:56:47.569Z,68.90
2019-03-30T04:59:17.380Z,69.00
2019-03-30T05:01:47.137Z,68.00
2019-03-30T05:04:17.085Z,68.50
2019-03-30T05:06:46.778Z,67.90
2019-03-30T05:09:16.543Z,68.10
2019-03-30T05:12:05.029Z,68.50
2019-03-30T05:14:42.252Z,68.30
2019-03-30T05:17:12.170Z,68.30
2019-03-30T05:19:42.166Z,68.60
2019-03-30T05:22:16.354Z,68.50
2019-03-30T05:24:43.340Z,68.60
2019-03-30T05:27:13.209Z,68.80
2019-03-30T05:29:42.942Z,68.80
2019-03-30T05:32:12.670Z,68.40
2019-03-30T05:34:42.748Z,69.80
2019-03-30T05:37:12.527Z,68.90
2019-03-30T05:39:42.291Z,68.90
2019-03-30T05:42:11.988Z,68.90
2019-03-30T05:44:41.724Z,69.90
2019-03-30T05:47:11.432Z,70.10
2019-03-30T05:49:41.158Z,69.50
2019-03-30T05:52:10.929Z,69.90
2019-03-30T05:54:40.672Z,70.20
2019-03-30T05:57:10.710Z,70.70
2019-03-30T05:59:40.437Z,70.50
2019-03-30T06:02:10.220Z,70.20
2019-03-30T06:04:39.997Z,70.60
2019-03-30T06:07:09.697Z,70.50
2019-03-30T06:09:39.456Z,69.70
2019-03-30T06:12:09.168Z,69.30
2019-03-30T06:14:39.077Z,69.30
2019-03-30T06:17:08.948Z,69.10
2019-03-30T06:19:38.712Z,69.10
2019-03-30T06:22:08.645Z,69.40
2019-03-30T06:24:38.336Z,68.90
2019-03-30T06:27:08.321Z,68.80
2019-03-30T06:29:38.025Z,68.90
2019-03-30T06:32:07.807Z,69.80
2019-03-30T06:34:37.516Z,69.30
2019-03-30T06:37:07.244Z,68.50
2019-03-30T06:39:37.310Z,67.90
2019-03-30T06:42:07.054Z,67.40
2019-03-30T06:44:36.890Z,67.40
2019-03-30T06:47:06.608Z,66.80
2019-03-30T06:49:36.453Z,66.50
2019-03-30T06:52:06.248Z,68.70
2019-03-30T06:54:36.989Z,66.40
2019-03-30T06:57:06.813Z,64.70
2019-03-30T06:59:36.558Z,64.30
2019-03-30T07:02:07.845Z,64.10
2019-03-30T07:04:39.027Z,62.30
2019-03-30T07:07:09.941Z,60.40
2019-03-30T07:09:40.076Z,60.20
2019-03-30T07:12:10.389Z,59.20
2019-03-30T07:14:40.682Z,59.30
2019-03-30T07:17:12.801Z,58.90
2019-03-30T07:19:44.982Z,58.20
2019-03-30T07:22:14.969Z,58.10
2019-03-30T07:24:44.716Z,58.20
2019-03-30T07:27:14.437Z,58.10
2019-03-30T07:29:44.372Z,57.30
2019-03-30T07:32:14.100Z,57.20
2019-03-30T07:34:44.169Z,56.00
2019-03-30T07:37:13.923Z,55.80
2019-03-30T07:39:43.673Z,55.90
2019-03-30T07:42:13.622Z,55.70
2019-03-30T07:44:43.491Z,54.60
2019-03-30T07:47:13.220Z,54.70
2019-03-30T07:49:42.944Z,54.00
2019-03-30T07:52:12.860Z,53.50
2019-03-30T07:54:42.885Z,52.90
2019-03-30T07:57:17.156Z,52.40
2019-03-30T07:59:44.458Z,52.70
2019-03-30T08:02:14.211Z,52.20
2019-03-30T08:04:44.120Z,51.60
2019-03-30T08:07:14.261Z,51.50
2019-03-30T08:09:43.996Z,49.90
2019-03-30T08:12:13.705Z,50.10
2019-03-30T08:14:45.116Z,49.60
2019-03-30T08:17:15.239Z,49.10
2019-03-30T08:19:45.233Z,49.40
2019-03-30T08:22:15.261Z,48.70
2019-03-30T08:24:44.995Z,48.00
2019-03-30T08:27:14.714Z,47.80
2019-03-30T08:29:44.466Z,46.80
2019-03-30T08:32:14.317Z,47.90
2019-03-30T08:34:44.080Z,48.00
2019-03-30T08:37:13.816Z,46.80
2019-03-30T08:39:43.663Z,47.30
2019-03-30T08:42:13.533Z,47.80
2019-03-30T08:44:43.542Z,47.20
2019-03-30T08:47:13.299Z,45.90
2019-03-30T08:49:43.025Z,46.20
2019-03-30T08:52:50.599Z,46.30
2019-03-30T08:55:20.398Z,46.30
2019-03-30T08:57:50.506Z,46.80
2019-03-30T09:00:38.092Z,45.70
2019-03-30T09:03:08.189Z,45.10
2019-03-30T09:05:38.031Z,45.60
2019-03-30T09:08:07.817Z,46.00
2019-03-30T09:10:37.598Z,45.50
2019-03-30T09:13:07.585Z,44.80
2019-03-30T09:15:37.426Z,44.40
2019-03-30T09:18:07.716Z,44.80
2019-03-30T09:20:37.421Z,44.50
2019-03-30T09:23:07.530Z,45.10
2019-03-30T09:25:37.292Z,44.10
2019-03-30T09:28:07.244Z,45.00
2019-03-30T09:30:37.001Z,44.70
2019-03-30T09:33:06.809Z,44.20
2019-03-30T09:35:36.546Z,44.10
2019-03-30T09:38:06.638Z,44.60
2019-03-30T09:40:36.609Z,44.40
2019-03-30T09:43:08.224Z,43.30
2019-03-30T09:45:37.977Z,43.30
2019-03-30T09:48:07.733Z,43.40
2019-03-30T09:50:37.537Z,43.60
2019-03-30T09:53:07.477Z,43.40
2019-03-30T09:55:38.221Z,42.50
2019-03-30T09:58:08.012Z,43.30
2019-03-30T10:00:37.764Z,42.80
2019-03-30T10:03:07.535Z,41.30
2019-03-30T10:05:37.254Z,41.40
2019-03-30T10:08:06.990Z,40.10
2019-03-30T10:10:36.898Z,40.00
2019-03-30T10:13:06.625Z,38.90
2019-03-30T10:15:36.441Z,35.70
2019-03-30T10:18:06.175Z,35.20
2019-03-30T10:20:36.065Z,32.80
2019-03-30T10:23:05.816Z,35.20
2019-03-30T10:25:35.596Z,35.60
2019-03-30T10:28:05.361Z,33.60
2019-03-30T10:30:35.296Z,32.90
2019-03-30T10:33:05.075Z,32.70
2019-03-30T10:35:34.909Z,32.60
2019-03-30T10:38:04.797Z,31.80
2019-03-30T10:40:34.935Z,31.30
2019-03-30T10:43:04.784Z,30.60
2019-03-30T10:45:34.713Z,32.30
2019-03-30T10:48:04.536Z,31.90
2019-03-30T10:50:34.533Z,30.60
2019-03-30T10:53:04.314Z,29.00
2019-03-30T10:55:34.085Z,28.20
2019-03-30T10:58:03.818Z,28.00
2019-03-30T11:00:38.001Z,28.40
2019-03-30T11:03:07.829Z,28.20
2019-03-30T11:05:37.582Z,27.90
2019-03-30T11:08:07.602Z,28.60
2019-03-30T11:10:37.914Z,28.10
2019-03-30T11:13:07.613Z,27.30
2019-03-30T11:15:37.493Z,28.40
2019-03-30T11:18:07.365Z,28.90
2019-03-30T11:20:37.117Z,27.90
2019-03-30T11:23:06.862Z,28.80
2019-03-30T11:25:36.800Z,27.40
2019-03-30T11:28:06.520Z,27.30
2019-03-30T11:30:36.239Z,27.40
2019-03-30T11:33:06.035Z,26.60
2019-03-30T11:35:35.976Z,25.40
2019-03-30T11:38:05.710Z,24.80
2019-03-30T11:40:35.553Z,25.50
2019-03-30T11:43:05.288Z,24.10
2019-03-30T11:45:35.130Z,23.80
2019-03-30T11:48:05.248Z,24.10
2019-03-30T11:50:35.401Z,22.20
2019-03-30T11:53:05.185Z,21.90
2019-03-30T11:55:35.011Z,23.00
2019-03-30T11:58:04.863Z,22.00
2019-03-30T12:00:34.643Z,19.10
2019-03-30T12:03:04.984Z,20.20
2019-03-30T12:05:34.795Z,19.80
2019-03-30T12:08:04.565Z,20.10
2019-03-30T12:10:34.303Z,19.10
2019-03-30T12:13:04.109Z,18.10
2019-03-30T12:15:33.872Z,18.50
2019-03-30T12:18:03.620Z,17.80
2019-03-30T12:20:33.396Z,17.60
2019-03-30T12:23:03.225Z,16.70
2019-03-30T12:25:35.756Z,16.40
2019-03-30T12:28:04.831Z,17.20
2019-03-30T12:30:34.800Z,17.20
2019-03-30T12:33:04.549Z,16.60
2019-03-30T12:39:08.802Z,13.20
2019-03-30T12:41:38.962Z,9.80
2019-03-30T12:44:09.051Z,9.10
2019-03-30T12:46:38.773Z,8.30
2019-03-30T12:49:08.508Z,7.80
2019-03-30T12:51:38.210Z,7.60
2019-03-30T12:54:08.140Z,7.40
2019-03-30T12:56:38.070Z,6.70
2019-03-30T12:59:07.872Z,7.00
2019-03-30T13:01:37.622Z,6.40
2019-03-30T13:04:07.419Z,6.70
2019-03-30T13:06:37.164Z,7.10
2019-03-30T13:09:08.168Z,6.80
2019-03-30T13:11:37.925Z,7.10
2019-03-30T13:14:07.672Z,7.10
2019-03-30T13:16:37.391Z,7.20
2019-03-30T13:19:07.492Z,7.00
2019-03-30T13:21:37.208Z,7.20
2019-03-30T13:24:06.938Z,6.40
2019-03-30T13:26:36.927Z,7.20
2019-03-30T13:29:06.662Z,8.00
2019-03-30T13:31:36.515Z,7.40
2019-03-30T13:34:06.272Z,7.60
2019-03-30T13:36:40.347Z,7.50
2019-03-30T13:39:10.544Z,7.50
2019-03-30T13:41:40.606Z,7.10
2019-03-30T13:44:10.648Z,7.10
2019-03-30T13:46:40.384Z,7.50
2019-03-30T13:49:10.129Z,7.40
2019-03-30T13:51:39.880Z,7.60
2019-03-30T13:54:09.631Z,8.20
2019-03-30T13:56:39.381Z,8.90
2019-03-30T13:59:09.251Z,10.60
2019-03-30T14:01:38.990Z,11.50
2019-03-30T14:04:08.761Z,13.00
2019-03-30T14:06:38.649Z,13.50
2019-03-30T14:09:08.547Z,14.80
2019-03-30T14:11:38.549Z,16.20
2019-03-30T14:14:08.271Z,17.50
2019-03-30T14:16:37.988Z,18.10
2019-03-30T14:19:07.798Z,18.80
2019-03-30T14:21:37.680Z,18.80
2019-03-30T14:24:07.590Z,19.60
2019-03-30T14:26:37.328Z,19.80
2019-03-30T14:29:07.263Z,19.70
2019-03-30T14:31:37.000Z,20.30
2019-03-30T14:34:06.728Z,20.80
2019-03-30T14:36:36.485Z,21.20
2019-03-30T14:39:07.529Z,21.10
2019-03-30T14:41:56.073Z,20.60
2019-03-30T14:44:25.835Z,20.70
2019-03-30T14:46:55.581Z,20.80
2019-03-30T14:49:25.357Z,20.30
2019-03-30T14:51:55.104Z,19.80
2019-03-30T14:54:24.880Z,20.80
2019-03-30T14:56:54.759Z,21.20
2019-03-30T14:59:35.836Z,21.50
2019-03-30T15:02:05.625Z,21.70
2019-03-30T15:04:35.554Z,21.40
2019-03-30T15:07:05.589Z,21.90
2019-03-30T15:09:35.347Z,22.00
2019-03-30T15:12:05.155Z,20.80
2019-03-30T15:14:34.919Z,21.90
2019-03-30T15:17:11.984Z,22.30
2019-03-30T15:19:41.721Z,22.50
2019-03-30T15:22:11.841Z,22.00
2019-03-30T15:24:42.300Z,22.50
2019-03-30T15:27:11.994Z,22.40
2019-03-30T15:29:45.307Z,22.20
2019-03-30T15:32:13.357Z,22.20
2019-03-30T15:34:43.380Z,22.70
2019-03-30T15:37:13.438Z,23.00
2019-03-30T15:39:43.529Z,22.30
2019-03-30T15:42:13.240Z,22.20
2019-03-30T15:44:43.003Z,22.90
2019-03-30T15:47:13.010Z,22.20
2019-03-30T15:49:42.841Z,22.10
2019-03-30T15:52:14.250Z,22.10
2019-03-30T15:54:44.131Z,22.30
2019-03-30T15:57:14.618Z,22.60
2019-03-30T15:59:44.825Z,22.80
2019-03-30T16:02:15.173Z,22.50
2019-03-30T16:04:45.002Z,23.00
2019-03-30T16:07:14.737Z,22.70
2019-03-30T16:09:44.561Z,21.50
2019-03-30T16:12:14.560Z,22.70
2019-03-30T16:14:44.335Z,23.20
2019-03-30T16:17:14.931Z,23.90
2019-03-30T16:19:45.124Z,23.70
2019-03-30T16:22:14.911Z,23.80
2019-03-30T16:24:44.689Z,23.50
2019-03-30T16:27:27.776Z,23.20
2019-03-30T16:29:46.044Z,23.10
2019-03-30T16:32:15.785Z,23.20
2019-03-30T16:34:45.533Z,23.10
2019-03-30T16:37:15.356Z,23.30
2019-03-30T16:39:45.229Z,22.80
2019-03-30T16:42:15.001Z,23.20
2019-03-30T16:44:44.802Z,23.60
2019-03-30T16:47:14.632Z,23.50
2019-03-30T16:49:44.365Z,23.60
2019-03-30T16:52:14.133Z,23.30
2019-03-30T16:54:43.869Z,23.30
2019-03-30T16:57:13.870Z,24.20
2019-03-30T16:59:43.917Z,24.40
2019-03-30T17:02:13.647Z,24.60
2019-03-30T17:04:43.768Z,24.80
2019-03-30T17:07:13.508Z,25.00
2019-03-30T17:09:43.261Z,25.30
2019-03-30T17:12:13.111Z,26.40
2019-03-30T17:14:43.207Z,28.30
2019-03-30T17:17:13.246Z,27.80
2019-03-30T17:19:43.211Z,28.50
2019-03-30T17:22:13.123Z,29.30
2019-03-30T17:24:42.857Z,29.40
2019-03-30T17:27:12.707Z,29.60
2019-03-30T17:29:42.424Z,29.20
2019-03-30T17:32:12.377Z,29.20
2019-03-30T17:34:42.211Z,30.50
2019-03-30T17:37:14.439Z,31.90
2019-03-30T17:39:43.393Z,31.80
2019-03-30T17:42:13.134Z,33.10
2019-03-30T17:44:42.989Z,33.90
2019-03-30T17:47:12.727Z,34.40
2019-03-30T17:49:42.524Z,34.70
2019-03-30T17:52:12.631Z,34.80
2019-03-30T17:54:42.640Z,35.40
2019-03-30T17:57:12.441Z,36.10
2019-03-30T17:59:42.785Z,36.80
2019-03-30T18:02:12.782Z,36.70
2019-03-30T18:04:43.221Z,36.50
2019-03-30T18:07:13.714Z,36.20
2019-03-30T18:09:43.902Z,36.40
2019-03-30T18:12:13.799Z,36.80
2019-03-30T18:14:43.806Z,36.70
2019-03-30T18:17:13.614Z,37.10
2019-03-30T18:19:43.512Z,38.10
2019-03-30T18:22:14.238Z,38.30
2019-03-30T18:24:44.119Z,38.70
2019-03-30T18:27:14.211Z,38.40
2019-03-30T18:29:44.186Z,38.30
2019-03-30T18:32:14.207Z,38.20
2019-03-30T18:34:45.227Z,39.40
2019-03-30T18:37:15.312Z,38.30
2019-03-30T18:39:45.114Z,37.80
2019-03-30T18:42:14.844Z,39.10
2019-03-30T18:44:45.727Z,39.20
2019-03-30T18:47:15.785Z,40.70
2019-03-30T18:49:45.528Z,40.50
2019-03-30T18:52:16.346Z,40.60
2019-03-30T18:54:46.566Z,40.80
2019-03-30T18:57:16.335Z,40.50
2019-03-30T18:59:46.086Z,40.90
2019-03-30T19:02:19.006Z,41.00
2019-03-30T19:04:47.550Z,41.00
2019-03-30T19:07:17.265Z,41.00
2019-03-30T19:09:47.169Z,41.70
2019-03-30T19:12:18.584Z,41.20
2019-03-30T19:14:48.432Z,41.90
2019-03-30T19:17:18.202Z,42.60
2019-03-30T19:19:50.096Z,43.40
2019-03-30T19:22:19.482Z,44.30
2019-03-30T19:24:49.239Z,42.70
2019-03-30T19:27:18.949Z,43.10
2019-03-30T19:29:48.632Z,42.90
2019-03-30T19:32:18.375Z,42.70
2019-03-30T19:34:48.302Z,43.50
2019-03-30T19:37:18.031Z,44.00
2019-03-30T19:39:47.882Z,44.30
2019-03-30T19:42:18.063Z,43.90
2019-03-30T19:44:47.820Z,44.80
2019-03-30T19:47:17.575Z,45.70
2019-03-30T19:49:47.616Z,45.20
2019-03-30T19:52:17.341Z,45.30
2019-03-30T19:54:47.060Z,44.90
2019-03-30T19:57:16.804Z,45.10
2019-03-30T19:59:46.593Z,44.40
2019-03-30T20:02:16.316Z,45.10
2019-03-30T20:04:46.049Z,46.00
2019-03-30T20:07:15.786Z,45.80
2019-03-30T20:09:45.508Z,46.30
2019-03-30T20:12:15.424Z,46.60
2019-03-30T20:14:45.142Z,47.10
2019-03-30T20:17:14.869Z,47.30
2019-03-30T20:19:44.676Z,47.20
2019-03-30T20:22:14.480Z,47.00
2019-03-30T20:24:44.248Z,46.90
2019-03-30T20:27:14.007Z,47.10
2019-03-30T20:29:43.743Z,47.60
2019-03-30T20:32:13.812Z,47.70
2019-03-30T20:34:43.556Z,48.20
2019-03-30T20:37:13.252Z,48.20
2019-03-30T20:39:43.010Z,48.30
2019-03-30T20:42:12.763Z,48.40
2019-03-30T20:44:42.507Z,48.90
2019-03-30T20:47:12.290Z,48.50
2019-03-30T20:49:42.045Z,48.70
2019-03-30T20:52:11.973Z,49.00
2019-03-30T20:54:41.892Z,49.20
2019-03-30T20:57:11.637Z,49.70
2019-03-30T20:59:41.380Z,49.70
2019-03-30T21:02:11.103Z,49.50
2019-03-30T21:04:40.854Z,49.60
2019-03-30T21:07:10.581Z,49.80
2019-03-30T21:09:40.312Z,50.40
2019-03-30T21:12:10.482Z,50.70
2019-03-30T21:14:40.276Z,50.60
2019-03-30T21:17:10.040Z,50.70
2019-03-30T21:19:39.864Z,50.90
2019-03-30T21:22:09.597Z,50.50
2019-03-30T21:24:39.369Z,50.60
2019-03-30T21:27:09.158Z,50.80
2019-03-30T21:29:38.893Z,51.00
2019-03-30T21:32:08.647Z,51.70
2019-03-30T21:34:38.391Z,51.50
2019-03-30T21:37:08.103Z,51.00
2019-03-30T21:39:37.884Z,51.10
2019-03-30T21:42:07.600Z,51.30
2019-03-30T21:44:37.264Z,51.10
2019-03-30T21:47:07.093Z,51.50
2019-03-30T21:49:36.775Z,51.60
2019-03-30T21:52:06.563Z,51.90
2019-03-30T21:54:38.689Z,52.20
2019-03-30T21:57:08.465Z,53.30
2019-03-30T21:59:38.173Z,52.40
2019-03-30T22:02:07.959Z,52.70
2019-03-30T22:04:37.799Z,52.80
2019-03-30T22:07:16.982Z,53.40
2019-03-30T22:09:46.880Z,53.40
2019-03-30T22:12:16.797Z,53.10
2019-03-30T22:14:46.699Z,53.10
2019-03-30T22:17:16.429Z,53.20
2019-03-30T22:19:46.215Z,53.60
2019-03-30T22:22:15.942Z,53.70
2019-03-30T22:24:45.748Z,53.60
2019-03-30T22:27:15.456Z,53.60
2019-03-30T22:29:48.894Z,53.90
2019-03-30T22:32:18.605Z,53.50
2019-03-30T22:34:48.309Z,54.00
2019-03-30T22:37:18.060Z,54.40
2019-03-30T22:39:47.764Z,53.80
2019-03-30T22:42:36.300Z,54.10
2019-03-30T22:45:06.241Z,54.20
2019-03-30T22:47:36.089Z,54.20
2019-03-30T22:50:07.632Z,54.00
2019-03-30T22:52:37.388Z,54.30
2019-03-30T22:55:07.259Z,54.40
2019-03-30T22:57:42.269Z,54.50
2019-03-30T23:00:21.649Z,54.70
2019-03-30T23:02:52.736Z,54.70
2019-03-30T23:05:22.657Z,55.30
2019-03-30T23:07:52.478Z,55.40
2019-03-30T23:10:22.312Z,55.20
2019-03-30T23:12:52.048Z,55.30
2019-03-30T23:15:21.840Z,55.40
2019-03-30T23:17:51.560Z,54.90
2019-03-30T23:20:21.478Z,55.10
2019-03-30T23:22:51.244Z,55.40
2019-03-30T23:25:21.144Z,55.40
2019-03-30T23:27:51.098Z,56.00
2019-03-30T23:30:22.996Z,55.60
2019-03-30T23:32:52.737Z,56.00
2019-03-30T23:35:25.267Z,55.90
2019-03-30T23:37:55.007Z,55.80
2019-03-30T23:40:27.717Z,55.90
2019-03-30T23:42:57.528Z,55.90
2019-03-30T23:45:27.303Z,55.90
2019-03-30T23:47:56.999Z,56.00
2019-03-30T23:50:26.886Z,56.80
2019-03-30T23:52:56.864Z,57.00
2019-03-30T23:55:26.611Z,56.70
2019-03-30T23:57:56.382Z,56.30
